sensor_id;sensor_type;location;lat;lon;timestamp;P1;durP1;ratioP1;P2;durP2;ratioP2
11018;SDS011;5563;52.296;6.806;2023-04-03T00:01:34;3.43;;;1.60;;
11018;SDS011;5563;52.296;6.806;2023-04-03T00:04:02;3.30;;;1.50;;
11018;SDS011;5563;52.296;6.806;2023-04-03T00:06:35;3.80;;;1.60;;
11018;SDS011;5563;52.296;6.806;2023-04-03T00:09:02;3.87;;;2.10;;
11018;SDS011;5563;52.296;6.806;2023-04-03T00:11:36;3.30;;;1.63;;
11018;SDS011;5563;52.296;6.806;2023-04-03T00:14:03;2.60;;;1.90;;
11018;SDS011;5563;52.296;6.806;2023-04-03T00:16:37;2.57;;;1.50;;
11018;SDS011;5563;52.296;6.806;2023-04-03T00:19:17;1.87;;;1.70;;
11018;SDS011;5563;52.296;6.806;2023-04-03T00:21:51;2.03;;;1.60;;
11018;SDS011;5563;52.296;6.806;2023-04-03T00:24:26;2.93;;;1.60;;
11018;SDS011;5563;52.296;6.806;2023-04-03T00:26:53;2.20;;;1.60;;
11018;SDS011;5563;52.296;6.806;2023-04-03T00:29:26;2.13;;;1.70;;
11018;SDS011;5563;52.296;6.806;2023-04-03T00:31:53;6.53;;;2.37;;
11018;SDS011;5563;52.296;6.806;2023-04-03T00:34:26;4.07;;;1.60;;
11018;SDS011;5563;52.296;6.806;2023-04-03T00:36:53;3.17;;;1.70;;
11018;SDS011;5563;52.296;6.806;2023-04-03T00:39:27;4.37;;;1.73;;
11018;SDS011;5563;52.296;6.806;2023-04-03T00:41:54;2.63;;;1.63;;
11018;SDS011;5563;52.296;6.806;2023-04-03T00:46:55;4.77;;;2.10;;
11018;SDS011;5563;52.296;6.806;2023-04-03T00:49:37;2.67;;;1.80;;
11018;SDS011;5563;52.296;6.806;2023-04-03T00:52:05;1.87;;;1.60;;
11018;SDS011;5563;52.296;6.806;2023-04-03T00:54:45;4.90;;;1.60;;
11018;SDS011;5563;52.296;6.806;2023-04-03T00:57:14;3.17;;;1.70;;
11018;SDS011;5563;52.296;6.806;2023-04-03T00:59:50;3.17;;;1.70;;
11018;SDS011;5563;52.296;6.806;2023-04-03T01:02:27;3.77;;;1.80;;
11018;SDS011;5563;52.296;6.806;2023-04-03T01:05:05;4.03;;;1.90;;
11018;SDS011;5563;52.296;6.806;2023-04-03T01:07:41;5.07;;;1.90;;
11018;SDS011;5563;52.296;6.806;2023-04-03T01:10:15;4.10;;;1.90;;
11018;SDS011;5563;52.296;6.806;2023-04-03T01:12:52;3.17;;;1.70;;
11018;SDS011;5563;52.296;6.806;2023-04-03T01:15:20;6.20;;;2.33;;
11018;SDS011;5563;52.296;6.806;2023-04-03T01:18:08;4.10;;;1.53;;
11018;SDS011;5563;52.296;6.806;2023-04-03T01:23:25;2.23;;;1.53;;
11018;SDS011;5563;52.296;6.806;2023-04-03T01:26:03;3.80;;;1.50;;
11018;SDS011;5563;52.296;6.806;2023-04-03T01:28:37;3.50;;;1.87;;
11018;SDS011;5563;52.296;6.806;2023-04-03T01:34:14;3.50;;;1.70;;
11018;SDS011;5563;52.296;6.806;2023-04-03T01:36:41;4.27;;;1.60;;
11018;SDS011;5563;52.296;6.806;2023-04-03T01:39:15;3.07;;;1.70;;
11018;SDS011;5563;52.296;6.806;2023-04-03T01:41:42;4.40;;;1.80;;
11018;SDS011;5563;52.296;6.806;2023-04-03T01:44:35;3.37;;;2.00;;
11018;SDS011;5563;52.296;6.806;2023-04-03T01:47:18;4.50;;;1.90;;
11018;SDS011;5563;52.296;6.806;2023-04-03T01:49:53;3.07;;;2.07;;
11018;SDS011;5563;52.296;6.806;2023-04-03T01:52:20;3.63;;;1.77;;
11018;SDS011;5563;52.296;6.806;2023-04-03T01:54:53;3.13;;;1.80;;
11018;SDS011;5563;52.296;6.806;2023-04-03T01:57:26;2.50;;;1.70;;
11018;SDS011;5563;52.296;6.806;2023-04-03T02:00:00;5.47;;;2.60;;
11018;SDS011;5563;52.296;6.806;2023-04-03T02:02:27;3.73;;;1.53;;
11018;SDS011;5563;52.296;6.806;2023-04-03T02:04:54;2.20;;;1.47;;
11018;SDS011;5563;52.296;6.806;2023-04-03T02:07:41;5.07;;;1.70;;
11018;SDS011;5563;52.296;6.806;2023-04-03T02:10:09;3.60;;;2.00;;
11018;SDS011;5563;52.296;6.806;2023-04-03T02:12:56;6.23;;;1.63;;
11018;SDS011;5563;52.296;6.806;2023-04-03T02:15:23;2.63;;;1.60;;
11018;SDS011;5563;52.296;6.806;2023-04-03T02:17:57;2.30;;;1.80;;
11018;SDS011;5563;52.296;6.806;2023-04-03T02:20:32;4.60;;;1.97;;
11018;SDS011;5563;52.296;6.806;2023-04-03T02:23:07;5.03;;;1.80;;
11018;SDS011;5563;52.296;6.806;2023-04-03T02:25:34;3.10;;;1.90;;
11018;SDS011;5563;52.296;6.806;2023-04-03T02:28:07;2.90;;;1.63;;
11018;SDS011;5563;52.296;6.806;2023-04-03T02:30:41;6.43;;;2.00;;
11018;SDS011;5563;52.296;6.806;2023-04-03T02:33:08;4.30;;;1.60;;
11018;SDS011;5563;52.296;6.806;2023-04-03T02:35:41;2.90;;;1.83;;
11018;SDS011;5563;52.296;6.806;2023-04-03T02:41:52;4.00;;;1.60;;
11018;SDS011;5563;52.296;6.806;2023-04-03T02:44:26;3.00;;;1.60;;
11018;SDS011;5563;52.296;6.806;2023-04-03T02:46:53;5.10;;;1.70;;
11018;SDS011;5563;52.296;6.806;2023-04-03T02:56:28;2.30;;;1.50;;
11018;SDS011;5563;52.296;6.806;2023-04-03T02:59:15;4.83;;;1.80;;
11018;SDS011;5563;52.296;6.806;2023-04-03T03:01:50;5.27;;;1.80;;
11018;SDS011;5563;52.296;6.806;2023-04-03T03:04:47;2.57;;;1.50;;
11018;SDS011;5563;52.296;6.806;2023-04-03T03:10:53;5.40;;;1.80;;
11018;SDS011;5563;52.296;6.806;2023-04-03T03:13:41;2.83;;;1.90;;
11018;SDS011;5563;52.296;6.806;2023-04-03T03:23:07;4.13;;;1.80;;
11018;SDS011;5563;52.296;6.806;2023-04-03T03:29:19;3.87;;;2.40;;
11018;SDS011;5563;52.296;6.806;2023-04-03T03:31:50;4.67;;;1.97;;
11018;SDS011;5563;52.296;6.806;2023-04-03T03:34:24;3.93;;;1.90;;
11018;SDS011;5563;52.296;6.806;2023-04-03T03:36:51;2.70;;;2.10;;
11018;SDS011;5563;52.296;6.806;2023-04-03T03:39:25;3.83;;;1.67;;
11018;SDS011;5563;52.296;6.806;2023-04-03T03:41:53;4.10;;;2.07;;
11018;SDS011;5563;52.296;6.806;2023-04-03T03:44:52;5.77;;;1.90;;
11018;SDS011;5563;52.296;6.806;2023-04-03T03:51:16;5.10;;;2.03;;
11018;SDS011;5563;52.296;6.806;2023-04-03T03:57:23;3.47;;;1.80;;
11018;SDS011;5563;52.296;6.806;2023-04-03T04:00:11;7.17;;;2.00;;
11018;SDS011;5563;52.296;6.806;2023-04-03T04:02:39;3.80;;;1.70;;
11018;SDS011;5563;52.296;6.806;2023-04-03T04:05:26;2.70;;;1.50;;
11018;SDS011;5563;52.296;6.806;2023-04-03T04:08:00;4.20;;;1.70;;
11018;SDS011;5563;52.296;6.806;2023-04-03T04:10:28;4.80;;;1.90;;
11018;SDS011;5563;52.296;6.806;2023-04-03T04:13:21;3.63;;;1.83;;
11018;SDS011;5563;52.296;6.806;2023-04-03T04:15:56;3.20;;;1.77;;
11018;SDS011;5563;52.296;6.806;2023-04-03T04:22:26;4.10;;;1.73;;
11018;SDS011;5563;52.296;6.806;2023-04-03T04:25:06;1.90;;;1.40;;
11018;SDS011;5563;52.296;6.806;2023-04-03T04:27:53;4.03;;;1.93;;
11018;SDS011;5563;52.296;6.806;2023-04-03T04:34:12;2.67;;;1.67;;
11018;SDS011;5563;52.296;6.806;2023-04-03T04:40:24;3.63;;;1.70;;
11018;SDS011;5563;52.296;6.806;2023-04-03T04:46:45;4.77;;;2.00;;
11018;SDS011;5563;52.296;6.806;2023-04-03T04:49:21;5.63;;;2.00;;
11018;SDS011;5563;52.296;6.806;2023-04-03T04:51:48;3.77;;;2.07;;
11018;SDS011;5563;52.296;6.806;2023-04-03T04:57:53;2.43;;;1.80;;
11018;SDS011;5563;52.296;6.806;2023-04-03T05:00:29;4.43;;;1.93;;
11018;SDS011;5563;52.296;6.806;2023-04-03T05:03:04;2.47;;;1.93;;
11018;SDS011;5563;52.296;6.806;2023-04-03T05:05:38;6.17;;;2.10;;
11018;SDS011;5563;52.296;6.806;2023-04-03T05:08:05;4.23;;;1.93;;
11018;SDS011;5563;52.296;6.806;2023-04-03T05:10:41;4.07;;;2.10;;
11018;SDS011;5563;52.296;6.806;2023-04-03T05:13:09;6.10;;;2.10;;
11018;SDS011;5563;52.296;6.806;2023-04-03T05:16:03;2.90;;;1.70;;
11018;SDS011;5563;52.296;6.806;2023-04-03T05:18:45;2.90;;;1.73;;
11018;SDS011;5563;52.296;6.806;2023-04-03T05:21:19;2.17;;;1.73;;
11018;SDS011;5563;52.296;6.806;2023-04-03T05:24:26;4.90;;;1.80;;
11018;SDS011;5563;52.296;6.806;2023-04-03T05:27:00;5.83;;;2.10;;
11018;SDS011;5563;52.296;6.806;2023-04-03T05:29:27;4.07;;;2.00;;
11018;SDS011;5563;52.296;6.806;2023-04-03T05:32:03;2.90;;;1.90;;
11018;SDS011;5563;52.296;6.806;2023-04-03T05:34:33;4.43;;;2.33;;
11018;SDS011;5563;52.296;6.806;2023-04-03T05:37:20;4.00;;;2.17;;
11018;SDS011;5563;52.296;6.806;2023-04-03T05:39:58;5.50;;;2.10;;
11018;SDS011;5563;52.296;6.806;2023-04-03T05:46:16;3.20;;;1.90;;
11018;SDS011;5563;52.296;6.806;2023-04-03T05:48:53;4.47;;;2.00;;
11018;SDS011;5563;52.296;6.806;2023-04-03T05:51:40;3.87;;;2.20;;
11018;SDS011;5563;52.296;6.806;2023-04-03T05:54:29;4.23;;;2.03;;
11018;SDS011;5563;52.296;6.806;2023-04-03T06:00:38;2.50;;;1.93;;
11018;SDS011;5563;52.296;6.806;2023-04-03T06:06:47;4.07;;;2.00;;
11018;SDS011;5563;52.296;6.806;2023-04-03T06:09:29;3.13;;;2.00;;
11018;SDS011;5563;52.296;6.806;2023-04-03T06:15:13;3.00;;;2.13;;
11018;SDS011;5563;52.296;6.806;2023-04-03T06:17:43;2.27;;;1.80;;
11018;SDS011;5563;52.296;6.806;2023-04-03T06:20:24;3.03;;;1.63;;
11018;SDS011;5563;52.296;6.806;2023-04-03T06:22:52;4.50;;;1.97;;
11018;SDS011;5563;52.296;6.806;2023-04-03T06:25:39;5.97;;;1.97;;
11018;SDS011;5563;52.296;6.806;2023-04-03T06:28:11;3.00;;;1.53;;
11018;SDS011;5563;52.296;6.806;2023-04-03T06:30:45;4.73;;;2.07;;
11018;SDS011;5563;52.296;6.806;2023-04-03T06:33:19;3.47;;;2.10;;
11018;SDS011;5563;52.296;6.806;2023-04-03T06:35:49;4.40;;;2.27;;
11018;SDS011;5563;52.296;6.806;2023-04-03T06:38:23;6.00;;;1.90;;
11018;SDS011;5563;52.296;6.806;2023-04-03T06:40:51;4.33;;;1.90;;
11018;SDS011;5563;52.296;6.806;2023-04-03T06:43:25;4.43;;;2.00;;
11018;SDS011;5563;52.296;6.806;2023-04-03T06:45:52;5.63;;;2.00;;
11018;SDS011;5563;52.296;6.806;2023-04-03T06:48:26;5.23;;;1.80;;
11018;SDS011;5563;52.296;6.806;2023-04-03T06:50:53;2.57;;;1.77;;
11018;SDS011;5563;52.296;6.806;2023-04-03T06:53:40;3.20;;;1.60;;
11018;SDS011;5563;52.296;6.806;2023-04-03T06:56:14;6.27;;;1.93;;
11018;SDS011;5563;52.296;6.806;2023-04-03T06:58:49;5.37;;;1.77;;
11018;SDS011;5563;52.296;6.806;2023-04-03T07:01:34;8.33;;;4.07;;
11018;SDS011;5563;52.296;6.806;2023-04-03T07:04:09;5.90;;;2.57;;
11018;SDS011;5563;52.296;6.806;2023-04-03T07:06:43;3.93;;;2.17;;
11018;SDS011;5563;52.296;6.806;2023-04-03T07:09:24;1.70;;;1.47;;
11018;SDS011;5563;52.296;6.806;2023-04-03T07:11:51;3.17;;;1.67;;
11018;SDS011;5563;52.296;6.806;2023-04-03T07:14:24;4.20;;;1.97;;
11018;SDS011;5563;52.296;6.806;2023-04-03T07:16:51;3.20;;;1.50;;
11018;SDS011;5563;52.296;6.806;2023-04-03T07:19:25;2.17;;;1.43;;
11018;SDS011;5563;52.296;6.806;2023-04-03T07:22:01;5.07;;;1.80;;
11018;SDS011;5563;52.296;6.806;2023-04-03T07:24:28;3.40;;;1.60;;
11018;SDS011;5563;52.296;6.806;2023-04-03T07:27:02;2.87;;;1.60;;
11018;SDS011;5563;52.296;6.806;2023-04-03T07:29:29;3.63;;;1.57;;
11018;SDS011;5563;52.296;6.806;2023-04-03T07:32:03;3.17;;;1.47;;
11018;SDS011;5563;52.296;6.806;2023-04-03T07:34:30;1.90;;;1.40;;
11018;SDS011;5563;52.296;6.806;2023-04-03T07:37:05;1.40;;;1.20;;
11018;SDS011;5563;52.296;6.806;2023-04-03T07:39:33;3.23;;;1.60;;
11018;SDS011;5563;52.296;6.806;2023-04-03T07:42:06;5.50;;;1.93;;
11018;SDS011;5563;52.296;6.806;2023-04-03T07:44:33;2.23;;;1.40;;
11018;SDS011;5563;52.296;6.806;2023-04-03T07:47:06;3.97;;;1.63;;
11018;SDS011;5563;52.296;6.806;2023-04-03T07:49:33;3.60;;;1.57;;
11018;SDS011;5563;52.296;6.806;2023-04-03T07:52:07;1.93;;;1.20;;
11018;SDS011;5563;52.296;6.806;2023-04-03T07:54:35;3.13;;;1.43;;
11018;SDS011;5563;52.296;6.806;2023-04-03T07:57:02;2.33;;;1.20;;
11018;SDS011;5563;52.296;6.806;2023-04-03T07:59:36;3.17;;;1.30;;
11018;SDS011;5563;52.296;6.806;2023-04-03T08:02:03;3.87;;;1.33;;
11018;SDS011;5563;52.296;6.806;2023-04-03T08:04:38;2.77;;;1.40;;
11018;SDS011;5563;52.296;6.806;2023-04-03T08:07:11;2.60;;;1.40;;
11018;SDS011;5563;52.296;6.806;2023-04-03T08:09:45;3.50;;;1.20;;
11018;SDS011;5563;52.296;6.806;2023-04-03T08:12:12;1.97;;;1.27;;
11018;SDS011;5563;52.296;6.806;2023-04-03T08:14:45;2.30;;;1.00;;
11018;SDS011;5563;52.296;6.806;2023-04-03T08:17:12;1.63;;;1.20;;
11018;SDS011;5563;52.296;6.806;2023-04-03T08:19:45;1.10;;;1.00;;
11018;SDS011;5563;52.296;6.806;2023-04-03T08:22:12;1.53;;;1.07;;
11018;SDS011;5563;52.296;6.806;2023-04-03T08:24:46;1.57;;;1.10;;
11018;SDS011;5563;52.296;6.806;2023-04-03T08:27:24;3.63;;;1.47;;
11018;SDS011;5563;52.296;6.806;2023-04-03T08:30:05;1.73;;;1.53;;
11018;SDS011;5563;52.296;6.806;2023-04-03T08:32:33;3.40;;;1.10;;
11018;SDS011;5563;52.296;6.806;2023-04-03T08:35:03;3.23;;;1.60;;
11018;SDS011;5563;52.296;6.806;2023-04-03T08:37:37;1.40;;;1.10;;
11018;SDS011;5563;52.296;6.806;2023-04-03T08:40:05;1.93;;;1.10;;
11018;SDS011;5563;52.296;6.806;2023-04-03T08:48:39;1.80;;;1.20;;
11018;SDS011;5563;52.296;6.806;2023-04-03T08:51:16;3.93;;;1.07;;
11018;SDS011;5563;52.296;6.806;2023-04-03T08:54:01;2.30;;;1.10;;
11018;SDS011;5563;52.296;6.806;2023-04-03T08:56:31;2.00;;;1.07;;
11018;SDS011;5563;52.296;6.806;2023-04-03T08:59:10;2.10;;;1.00;;
11018;SDS011;5563;52.296;6.806;2023-04-03T09:01:43;1.33;;;0.80;;
11018;SDS011;5563;52.296;6.806;2023-04-03T09:04:18;2.07;;;1.10;;
11018;SDS011;5563;52.296;6.806;2023-04-03T09:06:47;1.77;;;0.87;;
11018;SDS011;5563;52.296;6.806;2023-04-03T09:17:46;3.03;;;1.13;;
11018;SDS011;5563;52.296;6.806;2023-04-03T09:20:44;1.03;;;0.93;;
11018;SDS011;5563;52.296;6.806;2023-04-03T09:23:21;1.33;;;0.67;;
11018;SDS011;5563;52.296;6.806;2023-04-03T09:26:05;1.43;;;0.60;;
11018;SDS011;5563;52.296;6.806;2023-04-03T09:28:40;0.97;;;0.90;;
11018;SDS011;5563;52.296;6.806;2023-04-03T09:33:52;1.03;;;0.70;;
11018;SDS011;5563;52.296;6.806;2023-04-03T09:36:39;1.30;;;1.03;;
11018;SDS011;5563;52.296;6.806;2023-04-03T09:39:16;1.60;;;1.10;;
11018;SDS011;5563;52.296;6.806;2023-04-03T09:42:02;2.30;;;1.03;;
11018;SDS011;5563;52.296;6.806;2023-04-03T09:44:32;1.57;;;0.80;;
11018;SDS011;5563;52.296;6.806;2023-04-03T09:52:52;2.50;;;1.10;;
11018;SDS011;5563;52.296;6.806;2023-04-03T09:55:23;2.28;;;0.90;;
11018;SDS011;5563;52.296;6.806;2023-04-03T09:58:02;1.13;;;0.90;;
11018;SDS011;5563;52.296;6.806;2023-04-03T10:00:37;1.40;;;0.90;;
11018;SDS011;5563;52.296;6.806;2023-04-03T10:03:33;1.23;;;0.80;;
11018;SDS011;5563;52.296;6.806;2023-04-03T10:06:22;4.50;;;1.00;;
11018;SDS011;5563;52.296;6.806;2023-04-03T10:09:05;1.88;;;0.90;;
11018;SDS011;5563;52.296;6.806;2023-04-03T10:14:28;1.77;;;0.90;;
11018;SDS011;5563;52.296;6.806;2023-04-03T10:28:02;1.98;;;1.00;;
11018;SDS011;5563;52.296;6.806;2023-04-03T10:30:46;1.65;;;0.90;;
11018;SDS011;5563;52.296;6.806;2023-04-03T10:36:19;2.95;;;0.93;;
11018;SDS011;5563;52.296;6.806;2023-04-03T10:42:09;1.67;;;1.05;;
11018;SDS011;5563;52.296;6.806;2023-04-03T10:56:25;2.40;;;1.30;;
11018;SDS011;5563;52.296;6.806;2023-04-03T11:07:49;1.83;;;1.02;;
11018;SDS011;5563;52.296;6.806;2023-04-03T11:10:24;3.20;;;1.10;;
11018;SDS011;5563;52.296;6.806;2023-04-03T11:13:15;2.15;;;1.10;;
11018;SDS011;5563;52.296;6.806;2023-04-03T11:15:54;1.42;;;0.90;;
11018;SDS011;5563;52.296;6.806;2023-04-03T11:21:07;2.10;;;1.20;;
11018;SDS011;5563;52.296;6.806;2023-04-03T11:23:40;1.50;;;0.90;;
11018;SDS011;5563;52.296;6.806;2023-04-03T11:26:16;2.38;;;1.08;;
11018;SDS011;5563;52.296;6.806;2023-04-03T11:28:51;1.50;;;1.10;;
11018;SDS011;5563;52.296;6.806;2023-04-03T11:37:13;1.55;;;1.20;;
11018;SDS011;5563;52.296;6.806;2023-04-03T11:40:08;1.92;;;1.20;;
11018;SDS011;5563;52.296;6.806;2023-04-03T11:45:35;2.78;;;1.15;;
11018;SDS011;5563;52.296;6.806;2023-04-03T11:53:49;2.83;;;1.35;;
11018;SDS011;5563;52.296;6.806;2023-04-03T12:01:48;1.65;;;1.27;;
11018;SDS011;5563;52.296;6.806;2023-04-03T12:04:20;1.45;;;1.17;;
11018;SDS011;5563;52.296;6.806;2023-04-03T12:07:00;1.85;;;1.50;;
11018;SDS011;5563;52.296;6.806;2023-04-03T12:12:27;2.58;;;1.23;;
11018;SDS011;5563;52.296;6.806;2023-04-03T12:15:23;2.38;;;1.20;;
11018;SDS011;5563;52.296;6.806;2023-04-03T12:17:59;2.05;;;1.17;;
11018;SDS011;5563;52.296;6.806;2023-04-03T12:21:12;2.70;;;1.42;;
11018;SDS011;5563;52.296;6.806;2023-04-03T12:29:21;2.53;;;1.42;;
11018;SDS011;5563;52.296;6.806;2023-04-03T12:48:49;2.15;;;1.33;;
11018;SDS011;5563;52.296;6.806;2023-04-03T12:51:24;2.35;;;1.45;;
11018;SDS011;5563;52.296;6.806;2023-04-03T12:54:14;3.00;;;1.48;;
11018;SDS011;5563;52.296;6.806;2023-04-03T12:56:49;2.67;;;1.33;;
11018;SDS011;5563;52.296;6.806;2023-04-03T12:59:24;2.10;;;1.10;;
11018;SDS011;5563;52.296;6.806;2023-04-03T13:02:00;3.03;;;1.50;;
11018;SDS011;5563;52.296;6.806;2023-04-03T13:04:28;3.60;;;1.30;;
11018;SDS011;5563;52.296;6.806;2023-04-03T13:07:19;2.55;;;1.50;;
11018;SDS011;5563;52.296;6.806;2023-04-03T13:10:13;2.55;;;1.50;;
11018;SDS011;5563;52.296;6.806;2023-04-03T13:15:29;2.08;;;1.17;;
11018;SDS011;5563;52.296;6.806;2023-04-03T13:18:26;2.28;;;1.38;;
11018;SDS011;5563;52.296;6.806;2023-04-03T13:21:23;1.40;;;1.15;;
11018;SDS011;5563;52.296;6.806;2023-04-03T13:24:01;2.85;;;1.40;;
11018;SDS011;5563;52.296;6.806;2023-04-03T13:26:41;1.90;;;1.27;;
11018;SDS011;5563;52.296;6.806;2023-04-03T13:29:26;1.98;;;1.67;;
11018;SDS011;5563;52.296;6.806;2023-04-03T13:31:57;3.20;;;1.20;;
11018;SDS011;5563;52.296;6.806;2023-04-03T13:34:40;2.40;;;1.48;;
11018;SDS011;5563;52.296;6.806;2023-04-03T13:37:21;3.33;;;1.40;;
11018;SDS011;5563;52.296;6.806;2023-04-03T13:42:43;2.65;;;1.50;;
11018;SDS011;5563;52.296;6.806;2023-04-03T13:48:07;1.80;;;1.35;;
11018;SDS011;5563;52.296;6.806;2023-04-03T13:51:00;2.17;;;1.23;;
11018;SDS011;5563;52.296;6.806;2023-04-03T13:53:30;3.45;;;1.60;;
11018;SDS011;5563;52.296;6.806;2023-04-03T13:56:07;2.58;;;1.40;;
11018;SDS011;5563;52.296;6.806;2023-04-03T13:58:51;2.22;;;1.08;;
11018;SDS011;5563;52.296;6.806;2023-04-03T14:01:33;2.35;;;1.55;;
11018;SDS011;5563;52.296;6.806;2023-04-03T14:07:13;3.55;;;1.40;;
11018;SDS011;5563;52.296;6.806;2023-04-03T14:09:55;1.88;;;1.23;;
11018;SDS011;5563;52.296;6.806;2023-04-03T14:12:31;1.40;;;1.27;;
11018;SDS011;5563;52.296;6.806;2023-04-03T14:15:27;2.08;;;1.20;;
11018;SDS011;5563;52.296;6.806;2023-04-03T14:18:02;1.25;;;1.15;;
11018;SDS011;5563;52.296;6.806;2023-04-03T14:20:32;2.72;;;1.30;;
11018;SDS011;5563;52.296;6.806;2023-04-03T14:23:08;2.40;;;1.10;;
11018;SDS011;5563;52.296;6.806;2023-04-03T14:25:38;2.03;;;1.35;;
11018;SDS011;5563;52.296;6.806;2023-04-03T14:28:15;2.78;;;1.40;;
11018;SDS011;5563;52.296;6.806;2023-04-03T14:30:44;1.95;;;1.40;;
11018;SDS011;5563;52.296;6.806;2023-04-03T14:33:20;1.48;;;1.20;;
11018;SDS011;5563;52.296;6.806;2023-04-03T14:35:48;2.45;;;1.25;;
11018;SDS011;5563;52.296;6.806;2023-04-03T14:38:24;2.78;;;1.38;;
11018;SDS011;5563;52.296;6.806;2023-04-03T14:41:00;1.58;;;0.98;;
11018;SDS011;5563;52.296;6.806;2023-04-03T14:43:41;2.95;;;1.40;;
11018;SDS011;5563;52.296;6.806;2023-04-03T14:46:16;3.47;;;1.50;;
11018;SDS011;5563;52.296;6.806;2023-04-03T14:48:46;2.80;;;1.10;;
11018;SDS011;5563;52.296;6.806;2023-04-03T14:51:20;2.33;;;1.20;;
11018;SDS011;5563;52.296;6.806;2023-04-03T14:53:47;1.83;;;1.20;;
11018;SDS011;5563;52.296;6.806;2023-04-03T14:56:23;2.20;;;1.10;;
11018;SDS011;5563;52.296;6.806;2023-04-03T14:58:54;2.08;;;1.08;;
11018;SDS011;5563;52.296;6.806;2023-04-03T15:01:32;2.65;;;1.50;;
11018;SDS011;5563;52.296;6.806;2023-04-03T15:03:59;1.92;;;1.13;;
11018;SDS011;5563;52.296;6.806;2023-04-03T15:06:40;2.42;;;1.40;;
11018;SDS011;5563;52.296;6.806;2023-04-03T15:09:25;2.35;;;1.10;;
11018;SDS011;5563;52.296;6.806;2023-04-03T15:12:00;1.88;;;1.27;;
11018;SDS011;5563;52.296;6.806;2023-04-03T15:14:29;2.35;;;1.10;;
11018;SDS011;5563;52.296;6.806;2023-04-03T15:17:13;1.48;;;1.33;;
11018;SDS011;5563;52.296;6.806;2023-04-03T15:19:43;2.25;;;1.42;;
11018;SDS011;5563;52.296;6.806;2023-04-03T15:22:18;4.32;;;1.40;;
11018;SDS011;5563;52.296;6.806;2023-04-03T15:24:45;2.40;;;1.20;;
11018;SDS011;5563;52.296;6.806;2023-04-03T15:27:21;3.72;;;1.60;;
11018;SDS011;5563;52.296;6.806;2023-04-03T15:29:48;3.03;;;1.40;;
11018;SDS011;5563;52.296;6.806;2023-04-03T15:32:15;3.28;;;1.10;;
11018;SDS011;5563;52.296;6.806;2023-04-03T15:34:49;3.33;;;1.30;;
11018;SDS011;5563;52.296;6.806;2023-04-03T15:37:21;2.85;;;1.20;;
11018;SDS011;5563;52.296;6.806;2023-04-03T15:39:55;2.67;;;1.58;;
11018;SDS011;5563;52.296;6.806;2023-04-03T15:42:22;1.67;;;1.20;;
11018;SDS011;5563;52.296;6.806;2023-04-03T15:44:56;1.40;;;1.25;;
11018;SDS011;5563;52.296;6.806;2023-04-03T15:47:23;2.83;;;1.63;;
11018;SDS011;5563;52.296;6.806;2023-04-03T15:49:52;3.60;;;1.65;;
11018;SDS011;5563;52.296;6.806;2023-04-03T15:52:27;2.33;;;1.20;;
11018;SDS011;5563;52.296;6.806;2023-04-03T15:55:01;3.42;;;1.40;;
11018;SDS011;5563;52.296;6.806;2023-04-03T15:57:29;1.98;;;1.05;;
11018;SDS011;5563;52.296;6.806;2023-04-03T16:00:02;2.85;;;1.40;;
11018;SDS011;5563;52.296;6.806;2023-04-03T16:02:30;3.03;;;1.55;;
11018;SDS011;5563;52.296;6.806;2023-04-03T16:05:04;1.67;;;1.33;;
11018;SDS011;5563;52.296;6.806;2023-04-03T16:07:39;2.22;;;1.42;;
11018;SDS011;5563;52.296;6.806;2023-04-03T16:10:20;3.72;;;1.40;;
11018;SDS011;5563;52.296;6.806;2023-04-03T16:12:47;2.83;;;1.60;;
11018;SDS011;5563;52.296;6.806;2023-04-03T16:15:15;2.08;;;1.08;;
11018;SDS011;5563;52.296;6.806;2023-04-03T16:17:48;1.75;;;1.20;;
11018;SDS011;5563;52.296;6.806;2023-04-03T16:20:15;1.77;;;1.20;;
11018;SDS011;5563;52.296;6.806;2023-04-03T16:22:49;1.45;;;0.98;;
11018;SDS011;5563;52.296;6.806;2023-04-03T16:25:17;2.85;;;1.30;;
11018;SDS011;5563;52.296;6.806;2023-04-03T16:27:50;1.35;;;1.15;;
11018;SDS011;5563;52.296;6.806;2023-04-03T16:30:17;1.35;;;1.15;;
11018;SDS011;5563;52.296;6.806;2023-04-03T16:32:51;4.45;;;1.27;;
11018;SDS011;5563;52.296;6.806;2023-04-03T16:35:18;1.25;;;1.13;;
11018;SDS011;5563;52.296;6.806;2023-04-03T16:37:52;2.20;;;1.33;;
11018;SDS011;5563;52.296;6.806;2023-04-03T16:40:19;6.57;;;2.47;;
11018;SDS011;5563;52.296;6.806;2023-04-03T16:42:53;3.40;;;1.13;;
11018;SDS011;5563;52.296;6.806;2023-04-03T16:45:27;3.03;;;1.58;;
11018;SDS011;5563;52.296;6.806;2023-04-03T16:47:54;2.28;;;1.30;;
11018;SDS011;5563;52.296;6.806;2023-04-03T16:50:28;1.92;;;1.15;;
11018;SDS011;5563;52.296;6.806;2023-04-03T16:52:56;1.70;;;1.35;;
11018;SDS011;5563;52.296;6.806;2023-04-03T16:55:29;2.22;;;1.05;;
11018;SDS011;5563;52.296;6.806;2023-04-03T16:57:56;2.95;;;1.38;;
11018;SDS011;5563;52.296;6.806;2023-04-03T17:00:32;2.92;;;1.30;;
11018;SDS011;5563;52.296;6.806;2023-04-03T17:03:00;1.60;;;1.23;;
11018;SDS011;5563;52.296;6.806;2023-04-03T17:05:33;2.65;;;1.40;;
11018;SDS011;5563;52.296;6.806;2023-04-03T17:08:14;1.73;;;1.30;;
11018;SDS011;5563;52.296;6.806;2023-04-03T17:10:49;2.85;;;1.33;;
11018;SDS011;5563;52.296;6.806;2023-04-03T17:13:18;3.25;;;1.48;;
11018;SDS011;5563;52.296;6.806;2023-04-03T17:15:51;2.10;;;1.50;;
11018;SDS011;5563;52.296;6.806;2023-04-03T17:18:26;1.95;;;1.48;;
11018;SDS011;5563;52.296;6.806;2023-04-03T17:21:00;4.28;;;1.60;;
11018;SDS011;5563;52.296;6.806;2023-04-03T17:23:37;2.47;;;1.50;;
11018;SDS011;5563;52.296;6.806;2023-04-03T17:26:13;2.25;;;1.60;;
11018;SDS011;5563;52.296;6.806;2023-04-03T17:28:47;2.10;;;1.13;;
11018;SDS011;5563;52.296;6.806;2023-04-03T17:31:14;3.17;;;1.58;;
11018;SDS011;5563;52.296;6.806;2023-04-03T17:33:48;3.47;;;1.55;;
11018;SDS011;5563;52.296;6.806;2023-04-03T17:36:22;3.67;;;1.30;;
11018;SDS011;5563;52.296;6.806;2023-04-03T17:38:56;2.45;;;1.33;;
11018;SDS011;5563;52.296;6.806;2023-04-03T17:41:24;2.33;;;1.27;;
11018;SDS011;5563;52.296;6.806;2023-04-03T17:43:58;2.15;;;1.38;;
11018;SDS011;5563;52.296;6.806;2023-04-03T17:46:26;2.28;;;1.40;;
11018;SDS011;5563;52.296;6.806;2023-04-03T17:49:00;2.65;;;1.60;;
11018;SDS011;5563;52.296;6.806;2023-04-03T17:51:28;1.77;;;1.25;;
11018;SDS011;5563;52.296;6.806;2023-04-03T17:54:04;5.72;;;1.67;;
11018;SDS011;5563;52.296;6.806;2023-04-03T17:56:31;1.63;;;1.35;;
11018;SDS011;5563;52.296;6.806;2023-04-03T17:59:05;1.83;;;1.42;;
11018;SDS011;5563;52.296;6.806;2023-04-03T18:01:33;1.75;;;1.20;;
11018;SDS011;5563;52.296;6.806;2023-04-03T18:04:10;2.22;;;1.38;;
11018;SDS011;5563;52.296;6.806;2023-04-03T18:06:45;1.77;;;1.25;;
11018;SDS011;5563;52.296;6.806;2023-04-03T18:09:24;1.55;;;1.30;;
11018;SDS011;5563;52.296;6.806;2023-04-03T18:12:01;1.73;;;1.52;;
11018;SDS011;5563;52.296;6.806;2023-04-03T18:14:37;1.67;;;1.40;;
11018;SDS011;5563;52.296;6.806;2023-04-03T18:17:05;4.50;;;1.50;;
11018;SDS011;5563;52.296;6.806;2023-04-03T18:19:40;3.35;;;1.60;;
11018;SDS011;5563;52.296;6.806;2023-04-03T18:22:14;3.30;;;1.63;;
11018;SDS011;5563;52.296;6.806;2023-04-03T18:24:52;2.17;;;1.57;;
11018;SDS011;5563;52.296;6.806;2023-04-03T18:27:25;2.00;;;1.60;;
11018;SDS011;5563;52.296;6.806;2023-04-03T18:30:00;2.00;;;1.60;;
11018;SDS011;5563;52.296;6.806;2023-04-03T18:32:41;2.40;;;1.70;;
11018;SDS011;5563;52.296;6.806;2023-04-03T18:35:14;3.03;;;1.87;;
11018;SDS011;5563;52.296;6.806;2023-04-03T18:37:47;1.83;;;1.50;;
11018;SDS011;5563;52.296;6.806;2023-04-03T18:40:20;2.23;;;1.60;;
11018;SDS011;5563;52.296;6.806;2023-04-03T18:42:54;2.63;;;1.73;;
11018;SDS011;5563;52.296;6.806;2023-04-03T18:45:27;2.00;;;1.40;;
11018;SDS011;5563;52.296;6.806;2023-04-03T18:47:55;3.70;;;1.93;;
11018;SDS011;5563;52.296;6.806;2023-04-03T18:50:29;4.10;;;1.70;;
11018;SDS011;5563;52.296;6.806;2023-04-03T18:52:57;2.77;;;1.50;;
11018;SDS011;5563;52.296;6.806;2023-04-03T18:55:30;2.60;;;1.70;;
11018;SDS011;5563;52.296;6.806;2023-04-03T18:58:04;2.40;;;1.87;;
11018;SDS011;5563;52.296;6.806;2023-04-03T19:00:39;2.10;;;1.80;;
11018;SDS011;5563;52.296;6.806;2023-04-03T19:03:13;2.73;;;1.80;;